createdAt,value
2022-08-05T00:01:36.511Z,18.48
2022-08-05T00:04:18.844Z,18.43
2022-08-05T00:06:47.569Z,18.41
2022-08-05T00:09:20.800Z,18.43
2022-08-05T00:11:55.608Z,18.43
2022-08-05T00:14:29.340Z,18.41
2022-08-05T00:17:01.832Z,18.39
2022-08-05T00:19:33.683Z,18.38
2022-08-05T00:22:11.209Z,18.40
2022-08-05T00:24:42.629Z,18.40
2022-08-05T00:27:13.995Z,18.39
2022-08-05T00:29:45.563Z,18.38
2022-08-05T00:32:15.345Z,18.33
2022-08-05T00:35:03.842Z,18.34
2022-08-05T00:37:53.547Z,18.35
2022-08-05T00:40:29.290Z,18.34
2022-08-05T00:43:01.996Z,18.33
2022-08-05T00:45:42.958Z,18.32
2022-08-05T00:48:31.197Z,18.31
2022-08-05T00:51:00.495Z,18.31
2022-08-05T00:54:01.456Z,18.30
2022-08-05T00:56:26.623Z,18.20
2022-08-05T00:58:56.222Z,18.17
2022-08-05T01:01:42.928Z,18.11
2022-08-05T01:04:15.859Z,18.04
2022-08-05T01:06:48.769Z,18.00
2022-08-05T01:09:20.113Z,17.97
2022-08-05T01:11:56.322Z,17.97
2022-08-05T01:14:31.612Z,18.00
2022-08-05T01:17:32.145Z,18.04
2022-08-05T01:21:08.371Z,18.08
2022-08-05T01:24:13.079Z,18.11
2022-08-05T01:27:24.226Z,18.10
2022-08-05T01:29:58.772Z,18.09
2022-08-05T01:32:32.263Z,18.11
2022-08-05T01:35:53.316Z,18.14
2022-08-05T01:38:08.965Z,18.13
2022-08-05T01:40:55.985Z,18.16
2022-08-05T01:43:28.454Z,18.19
2022-08-05T01:46:07.242Z,18.16
2022-08-05T01:48:49.717Z,18.15
2022-08-05T01:51:19.275Z,18.14
2022-08-05T01:53:56.989Z,18.13
2022-08-05T01:58:11.071Z,18.12
2022-08-05T01:59:23.336Z,18.07
2022-08-05T02:01:55.601Z,18.05
2022-08-05T02:04:29.961Z,18.02
2022-08-05T02:06:59.493Z,18.01
2022-08-05T02:09:28.675Z,17.99
2022-08-05T02:12:07.116Z,17.97
2022-08-05T02:14:53.171Z,17.96
2022-08-05T02:18:30.888Z,17.91
2022-08-05T02:21:15.643Z,17.86
2022-08-05T02:23:50.562Z,17.88
2022-08-05T02:26:28.647Z,17.89
2022-08-05T02:28:58.643Z,17.88
2022-08-05T02:31:34.613Z,17.86
2022-08-05T02:34:15.823Z,17.83
2022-08-05T02:36:55.580Z,17.78
2022-08-05T02:39:28.124Z,17.72
2022-08-05T02:42:01.183Z,17.70
2022-08-05T02:44:34.537Z,17.66
2022-08-05T02:47:08.342Z,17.63
2022-08-05T02:49:42.508Z,17.65
2022-08-05T02:52:29.326Z,17.68
2022-08-05T02:55:05.531Z,17.68
2022-08-05T02:58:12.349Z,17.65
2022-08-05T03:00:29.618Z,17.61
2022-08-05T03:03:00.283Z,17.60
2022-08-05T03:06:53.761Z,17.60
2022-08-05T03:08:27.182Z,17.58
2022-08-05T03:11:45.939Z,17.56
2022-08-05T03:13:51.413Z,17.49
2022-08-05T03:16:31.969Z,17.49
2022-08-05T03:19:04.263Z,17.55
2022-08-05T03:21:48.761Z,17.58
2022-08-05T03:24:30.028Z,17.64
2022-08-05T03:27:01.156Z,17.68
2022-08-05T03:29:45.748Z,17.72
2022-08-05T03:32:20.457Z,17.78
2022-08-05T03:34:51.040Z,17.82
2022-08-05T03:37:22.987Z,17.79
2022-08-05T03:40:04.037Z,17.91
2022-08-05T03:42:51.474Z,17.98
2022-08-05T03:45:23.412Z,18.06
2022-08-05T03:47:56.836Z,18.15
2022-08-05T03:50:46.751Z,18.23
2022-08-05T03:55:52.226Z,18.34
2022-08-05T03:56:50.334Z,18.43
2022-08-05T03:59:47.388Z,18.52
2022-08-05T04:02:37.911Z,18.61
2022-08-05T04:05:12.905Z,18.69
2022-08-05T04:07:57.130Z,18.79
2022-08-05T04:10:33.252Z,18.89
2022-08-05T04:13:08.662Z,19.03
2022-08-05T04:15:37.958Z,19.09
2022-08-05T04:18:25.779Z,19.09
2022-08-05T04:20:58.430Z,19.09
2022-08-05T04:24:05.719Z,19.15
2022-08-05T04:26:19.049Z,19.17
2022-08-05T04:28:51.688Z,19.24
2022-08-05T04:31:21.348Z,19.39
2022-08-05T04:34:19.125Z,19.46
2022-08-05T04:36:49.626Z,19.58
2022-08-05T04:39:20.627Z,19.74
2022-08-05T04:41:52.427Z,19.86
2022-08-05T04:44:56.645Z,20.00
2022-08-05T04:47:25.733Z,20.14
2022-08-05T04:50:03.087Z,20.23
2022-08-05T04:53:15.509Z,20.39
2022-08-05T04:56:15.490Z,20.47
2022-08-05T05:18:36.292Z,21.31
2022-08-05T05:21:06.211Z,21.44
2022-08-05T05:23:39.537Z,21.66
2022-08-05T05:48:09.228Z,22.30
2022-08-05T07:44:14.391Z,25.57
2022-08-05T07:54:47.702Z,25.73
2022-08-05T08:26:17.558Z,26.24
2022-08-05T08:34:01.366Z,26.47
2022-08-05T08:36:48.803Z,26.55
2022-08-05T09:03:24.775Z,27.62
2022-08-05T09:10:11.902Z,27.74
2022-08-05T09:12:41.415Z,27.54
2022-08-05T09:15:11.480Z,27.60
2022-08-05T09:17:49.416Z,27.52
2022-08-05T09:20:36.467Z,27.66
2022-08-05T09:23:19.484Z,27.90
2022-08-05T09:26:20.512Z,28.01
2022-08-05T09:28:50.139Z,28.05
2022-08-05T09:31:44.125Z,28.03
2022-08-05T09:34:13.016Z,28.12
2022-08-05T09:36:56.317Z,28.34
2022-08-05T09:39:41.632Z,28.14
2022-08-05T09:42:24.389Z,27.87
2022-08-05T09:45:17.468Z,27.82
2022-08-05T09:47:57.685Z,27.80
2022-08-05T09:50:44.563Z,28.11
2022-08-05T09:53:26.044Z,28.29
2022-08-05T09:56:12.608Z,28.51
2022-08-05T09:58:42.387Z,28.60
2022-08-05T10:01:15.209Z,28.62
2022-08-05T10:04:10.243Z,28.70
2022-08-05T10:06:59.036Z,28.87
2022-08-05T10:09:29.581Z,28.64
2022-08-05T10:12:30.337Z,28.72
2022-08-05T10:15:20.980Z,28.70
2022-08-05T10:18:20.310Z,28.55
2022-08-05T10:20:56.985Z,28.44
2022-08-05T10:23:55.304Z,28.44
2022-08-05T10:26:18.059Z,28.95
2022-08-05T10:28:48.241Z,29.40
2022-08-05T10:32:50.784Z,29.62
2022-08-05T10:34:08.893Z,29.44
2022-08-05T10:36:39.894Z,29.42
2022-08-05T10:39:24.502Z,29.50
2022-08-05T10:42:11.327Z,30.03
2022-08-05T10:44:46.552Z,30.44
2022-08-05T10:47:26.127Z,30.66
2022-08-05T10:50:33.238Z,30.29
2022-08-05T10:53:01.712Z,30.11
2022-08-05T10:55:38.531Z,29.77
2022-08-05T10:58:21.287Z,29.47
2022-08-05T11:00:55.294Z,29.60
2022-08-05T11:03:32.610Z,29.92
2022-08-05T11:06:15.974Z,30.38
2022-08-05T11:09:32.354Z,30.48
2022-08-05T11:12:41.225Z,29.99
2022-08-05T11:16:00.577Z,30.32
2022-08-05T11:18:34.655Z,30.53
2022-08-05T11:21:11.216Z,31.01
2022-08-05T11:28:23.267Z,31.57
2022-08-05T11:30:58.715Z,32.14
2022-08-05T11:34:09.278Z,31.85
2022-08-05T11:36:53.021Z,31.60
2022-08-05T11:40:00.766Z,31.46
2022-08-05T11:44:00.932Z,30.70
2022-08-05T11:46:30.915Z,30.13
2022-08-05T11:49:05.527Z,29.79
2022-08-05T11:51:43.594Z,29.94
2022-08-05T11:54:40.583Z,29.99
2022-08-05T12:05:17.939Z,32.09
2022-08-05T12:08:08.073Z,32.46
2022-08-05T12:11:48.161Z,32.81
2022-08-05T12:15:59.527Z,33.18
2022-08-05T12:18:33.328Z,33.65
2022-08-05T12:21:47.254Z,33.76
2022-08-05T12:25:56.902Z,33.31
2022-08-05T12:29:37.968Z,33.27
2022-08-05T12:33:26.973Z,33.58
2022-08-05T12:37:42.653Z,34.29
2022-08-05T12:42:21.042Z,34.98
2022-08-05T12:44:50.201Z,35.00
2022-08-05T12:47:32.770Z,35.21
2022-08-05T12:52:18.778Z,35.00
2022-08-05T12:57:01.668Z,35.31
2022-08-05T13:02:01.081Z,34.41
2022-08-05T13:24:27.779Z,36.04
2022-08-05T13:27:10.909Z,36.20
2022-08-05T13:29:40.073Z,36.33
2022-08-05T13:32:35.119Z,35.93
2022-08-05T13:35:09.859Z,36.58
2022-08-05T13:37:38.501Z,37.31
2022-08-05T13:40:16.400Z,37.51
2022-08-05T13:42:49.045Z,37.04
2022-08-05T13:45:43.200Z,36.95
2022-08-05T13:48:58.070Z,36.93
2022-08-05T13:59:55.580Z,36.55
2022-08-05T14:02:29.877Z,35.99
2022-08-05T14:08:41.131Z,35.06
2022-08-05T14:11:20.201Z,34.57
2022-08-05T14:14:34.648Z,34.17
2022-08-05T14:17:04.825Z,33.79
2022-08-05T14:20:31.320Z,34.16
2022-08-05T14:23:00.562Z,34.53
2022-08-05T14:25:31.363Z,34.37
2022-08-05T14:28:00.097Z,35.05
2022-08-05T14:30:29.906Z,35.65
2022-08-05T14:32:59.019Z,35.37
2022-08-05T14:35:37.492Z,34.81
2022-08-05T14:38:32.093Z,35.30
2022-08-05T14:41:07.243Z,35.65
2022-08-05T14:44:00.310Z,34.98
2022-08-05T14:48:33.486Z,35.15
2022-08-05T14:51:03.228Z,35.62
2022-08-05T14:53:31.968Z,36.14
2022-08-05T14:56:13.511Z,36.59
2022-08-05T14:58:47.543Z,36.73
2022-08-05T15:02:14.927Z,36.80
2022-08-05T15:04:47.936Z,36.62
2022-08-05T15:08:04.548Z,37.08
2022-08-05T15:10:46.223Z,35.93
2022-08-05T15:15:55.747Z,35.77
2022-08-05T15:19:52.877Z,33.86
2022-08-05T15:23:38.879Z,33.44
2022-08-05T15:26:08.411Z,33.22
2022-08-05T15:28:38.393Z,32.56
2022-08-05T15:31:11.975Z,32.46
2022-08-05T15:34:18.848Z,32.46
2022-08-05T15:36:38.672Z,32.19
2022-08-05T15:40:59.222Z,32.12
2022-08-05T15:41:59.098Z,32.36
2022-08-05T15:44:31.235Z,32.83
2022-08-05T15:47:06.154Z,32.73
2022-08-05T15:49:53.686Z,32.58
2022-08-05T15:52:51.561Z,32.46
2022-08-05T15:55:16.678Z,32.17
2022-08-05T15:57:48.838Z,31.92
2022-08-05T16:00:26.311Z,31.98
2022-08-05T16:03:01.600Z,33.07
2022-08-05T16:05:30.983Z,33.84
2022-08-05T16:08:00.065Z,33.94
2022-08-05T16:10:28.969Z,34.52
2022-08-05T16:12:57.969Z,34.79
2022-08-05T16:15:32.709Z,35.01
2022-08-05T16:18:04.237Z,34.75
2022-08-05T16:20:41.648Z,34.95
2022-08-05T16:23:10.521Z,35.02
2022-08-05T16:28:04.948Z,35.12
2022-08-05T16:30:36.103Z,34.51
2022-08-05T16:33:05.172Z,34.70
2022-08-05T16:35:41.936Z,34.82
2022-08-05T16:38:18.448Z,34.65
2022-08-05T16:41:01.484Z,33.97
2022-08-05T16:43:34.143Z,34.01
2022-08-05T16:46:23.637Z,33.76
2022-08-05T16:48:53.456Z,33.92
2022-08-05T16:51:42.296Z,33.68
2022-08-05T16:54:17.473Z,33.67
2022-08-05T16:56:52.230Z,33.59
2022-08-05T16:59:20.866Z,33.34
2022-08-05T17:01:54.203Z,32.91
2022-08-05T17:04:28.056Z,32.30
2022-08-05T17:07:01.475Z,31.69
2022-08-05T17:09:56.055Z,31.27
2022-08-05T17:12:22.735Z,31.05
2022-08-05T17:15:55.694Z,30.57
2022-08-05T17:18:36.457Z,30.27
2022-08-05T17:21:17.378Z,30.02
2022-08-05T17:24:05.035Z,29.74
2022-08-05T17:27:12.729Z,29.45
2022-08-05T17:29:45.724Z,29.18
2022-08-05T17:32:17.696Z,29.01
2022-08-05T17:37:41.005Z,28.55
2022-08-05T17:40:41.484Z,28.24
2022-08-05T17:43:11.725Z,28.01
2022-08-05T17:47:53.470Z,27.80
2022-08-05T17:52:06.301Z,27.37
2022-08-05T17:54:35.937Z,27.06
2022-08-05T17:57:05.650Z,26.84
2022-08-05T17:59:43.537Z,26.66
2022-08-05T18:02:13.255Z,26.48
2022-08-05T18:04:51.206Z,26.32
2022-08-05T18:07:22.349Z,26.22
2022-08-05T18:09:59.895Z,26.11
2022-08-05T18:12:29.384Z,26.08
2022-08-05T18:14:58.959Z,26.04
2022-08-05T18:17:59.644Z,25.98
2022-08-05T18:20:16.312Z,25.91
2022-08-05T18:22:54.765Z,25.83
2022-08-05T18:25:59.687Z,25.74
2022-08-05T18:28:28.618Z,25.66
2022-08-05T18:30:57.322Z,25.57
2022-08-05T18:33:26.051Z,25.49
2022-08-05T18:36:11.881Z,25.39
2022-08-05T18:38:44.296Z,25.31
2022-08-05T18:41:58.151Z,25.23
2022-08-05T18:44:34.907Z,25.17
2022-08-05T18:47:04.362Z,25.10
2022-08-05T18:49:57.806Z,25.03
2022-08-05T18:52:50.813Z,24.96
2022-08-05T18:55:22.249Z,24.92
2022-08-05T18:57:53.825Z,24.89
2022-08-05T19:00:29.235Z,24.86
2022-08-05T19:03:07.428Z,24.81
2022-08-05T19:06:11.915Z,24.78
2022-08-05T19:08:30.999Z,24.74
2022-08-05T19:11:04.517Z,24.67
2022-08-05T19:13:35.638Z,24.60
2022-08-05T19:16:24.421Z,24.57
2022-08-05T19:19:32.075Z,24.48
2022-08-05T19:22:03.094Z,24.44
2022-08-05T19:24:34.415Z,24.41
2022-08-05T19:27:08.286Z,24.38
2022-08-05T19:29:50.300Z,24.35
2022-08-05T19:32:19.529Z,24.30
2022-08-05T19:34:54.579Z,24.26
2022-08-05T19:37:34.847Z,24.22
2022-08-05T19:40:54.047Z,24.18
2022-08-05T19:44:04.178Z,24.19
2022-08-05T19:46:16.959Z,24.19
2022-08-05T19:49:04.057Z,24.23
2022-08-05T19:52:05.328Z,24.23
2022-08-05T19:54:31.497Z,24.24
2022-08-05T19:57:11.889Z,24.23
2022-08-05T19:59:55.915Z,24.21
2022-08-05T20:03:05.511Z,24.19
2022-08-05T20:05:43.143Z,24.20
2022-08-05T20:09:13.669Z,24.19
2022-08-05T20:11:48.210Z,24.20
2022-08-05T20:14:26.562Z,24.20
2022-08-05T20:16:58.739Z,24.18
2022-08-05T20:19:36.077Z,24.23
2022-08-05T20:22:05.366Z,24.29
2022-08-05T20:24:38.527Z,24.34
2022-08-05T20:27:11.244Z,24.38
2022-08-05T20:29:40.356Z,24.43
2022-08-05T20:32:09.024Z,24.46
2022-08-05T20:34:39.026Z,24.48
2022-08-05T20:37:24.274Z,24.49
2022-08-05T20:39:58.961Z,24.47
2022-08-05T20:42:28.214Z,24.47
2022-08-05T20:44:56.972Z,24.50
2022-08-05T20:47:31.107Z,24.51
2022-08-05T20:50:02.567Z,24.52
2022-08-05T20:52:34.120Z,24.43
2022-08-05T20:55:56.341Z,24.25
2022-08-05T20:57:52.225Z,24.05
2022-08-05T21:00:41.904Z,23.99
2022-08-05T21:03:34.743Z,23.91
2022-08-05T21:06:03.642Z,23.87
2022-08-05T21:08:41.363Z,23.87
2022-08-05T21:11:15.114Z,23.78
2022-08-05T21:14:01.509Z,23.71
2022-08-05T21:16:31.034Z,23.64
2022-08-05T21:19:01.757Z,23.56
2022-08-05T21:21:39.043Z,23.49
2022-08-05T21:24:15.421Z,23.41
2022-08-05T21:26:53.345Z,23.34
2022-08-05T21:29:31.865Z,23.24
2022-08-05T21:32:04.568Z,23.18
2022-08-05T21:34:35.521Z,23.09
2022-08-05T21:37:05.337Z,22.99
2022-08-05T21:39:40.433Z,22.87
2022-08-05T21:42:30.648Z,22.84
2022-08-05T21:44:59.969Z,22.76
2022-08-05T21:47:54.984Z,22.69
2022-08-05T21:50:18.525Z,22.60
2022-08-05T21:52:47.586Z,22.50
2022-08-05T21:55:18.336Z,22.45
2022-08-05T21:58:07.306Z,22.40
2022-08-05T22:00:40.449Z,22.35
2022-08-05T22:03:15.319Z,22.33
2022-08-05T22:05:48.945Z,22.34
2022-08-05T22:08:22.059Z,22.31
2022-08-05T22:10:53.471Z,22.27
2022-08-05T22:14:34.438Z,22.22
2022-08-05T22:16:42.116Z,22.16
2022-08-05T22:18:59.412Z,22.13
2022-08-05T22:21:28.244Z,22.10
2022-08-05T22:24:40.807Z,22.10
2022-08-05T22:27:22.475Z,22.09
2022-08-05T22:29:54.122Z,22.05
2022-08-05T22:32:23.162Z,21.99
2022-08-05T22:34:52.942Z,21.92
2022-08-05T22:37:22.416Z,21.86
2022-08-05T22:39:51.159Z,21.82
2022-08-05T22:42:26.209Z,21.76
2022-08-05T22:44:56.628Z,21.74
2022-08-05T22:47:29.500Z,21.75
2022-08-05T22:50:19.178Z,21.79
2022-08-05T22:52:52.561Z,21.81
2022-08-05T22:55:23.597Z,21.85
2022-08-05T22:57:55.077Z,21.85
2022-08-05T23:00:24.603Z,21.84
2022-08-05T23:02:56.446Z,21.88
2022-08-05T23:05:27.009Z,21.89
2022-08-05T23:07:55.606Z,21.89
2022-08-05T23:10:24.458Z,21.88
2022-08-05T23:12:55.711Z,21.83
2022-08-05T23:15:35.417Z,21.78
2022-08-05T23:18:06.142Z,21.75
2022-08-05T23:20:43.148Z,21.76
2022-08-05T23:23:11.983Z,21.78
2022-08-05T23:25:52.253Z,21.81
2022-08-05T23:28:27.807Z,21.81
2022-08-05T23:31:15.869Z,21.80
2022-08-05T23:34:04.123Z,21.83
2022-08-05T23:36:39.929Z,21.85
2022-08-05T23:39:16.515Z,21.89
2022-08-05T23:41:53.891Z,21.91
2022-08-05T23:44:25.303Z,21.94
2022-08-05T23:47:14.575Z,21.94
2022-08-05T23:49:46.320Z,21.93
2022-08-05T23:52:27.743Z,21.93
2022-08-05T23:55:00.595Z,21.90
2022-08-05T23:57:30.311Z,21.85
